createdAt,value
2018-11-28T00:00:24.769Z,62.20
2018-11-28T00:02:53.457Z,62.30
2018-11-28T00:05:22.156Z,61.90
2018-11-28T00:08:06.513Z,62.40
2018-11-28T00:10:35.200Z,62.00
2018-11-28T00:13:03.875Z,62.00
2018-11-28T00:15:32.565Z,62.10
2018-11-28T00:18:01.258Z,62.10
2018-11-28T00:20:29.907Z,62.00
2018-11-28T00:22:58.639Z,61.90
2018-11-28T00:25:27.301Z,61.70
2018-11-28T00:27:55.940Z,61.60
2018-11-28T00:30:25.427Z,61.70
2018-11-28T00:32:54.083Z,61.20
2018-11-28T00:35:23.619Z,61.70
2018-11-28T00:37:52.287Z,62.00
2018-11-28T00:40:22.944Z,62.60
2018-11-28T00:42:51.840Z,61.90
2018-11-28T00:45:27.357Z,62.10
2018-11-28T00:47:56.005Z,61.90
2018-11-28T00:50:26.745Z,62.00
2018-11-28T00:52:55.417Z,61.70
2018-11-28T00:55:24.188Z,61.80
2018-11-28T00:57:52.896Z,62.10
2018-11-28T01:00:28.438Z,62.20
2018-11-28T01:02:57.089Z,62.40
2018-11-28T01:05:25.746Z,62.40
2018-11-28T01:07:55.084Z,62.60
2018-11-28T01:10:24.561Z,62.30
2018-11-28T01:12:53.841Z,62.40
2018-11-28T01:15:22.675Z,62.90
2018-11-28T01:17:51.323Z,62.90
2018-11-28T01:20:21.264Z,62.90
2018-11-28T01:22:49.909Z,63.70
2018-11-28T01:25:19.514Z,63.00
2018-11-28T01:27:48.303Z,63.30
2018-11-28T01:30:19.962Z,63.50
2018-11-28T01:32:48.616Z,63.60
2018-11-28T01:35:18.236Z,63.60
2018-11-28T01:37:47.036Z,63.90
2018-11-28T01:40:16.545Z,63.90
2018-11-28T01:42:45.226Z,64.00
2018-11-28T01:45:16.692Z,64.00
2018-11-28T01:47:45.485Z,64.10
2018-11-28T01:50:15.686Z,64.30
2018-11-28T01:52:44.450Z,64.10
2018-11-28T01:55:14.888Z,64.00
2018-11-28T01:57:43.564Z,64.30
2018-11-28T02:00:18.864Z,64.30
2018-11-28T02:02:48.710Z,64.60
2018-11-28T02:05:17.393Z,64.70
2018-11-28T02:07:46.068Z,64.60
2018-11-28T02:10:15.347Z,64.70
2018-11-28T02:12:44.016Z,64.60
2018-11-28T02:15:14.617Z,64.90
2018-11-28T02:17:43.249Z,65.20
2018-11-28T02:20:12.834Z,65.00
2018-11-28T02:22:41.559Z,65.20
2018-11-28T02:25:13.978Z,65.20
2018-11-28T02:27:42.702Z,65.40
2018-11-28T02:30:12.349Z,65.30
2018-11-28T02:32:41.000Z,64.80
2018-11-28T02:35:10.656Z,65.50
2018-11-28T02:37:39.364Z,65.60
2018-11-28T02:40:09.325Z,65.50
2018-11-28T02:42:37.996Z,65.70
2018-11-28T02:45:12.184Z,65.70
2018-11-28T02:47:40.899Z,66.10
2018-11-28T02:50:09.621Z,65.70
2018-11-28T02:52:38.265Z,65.80
2018-11-28T02:55:08.421Z,65.90
2018-11-28T02:57:37.069Z,66.00
2018-11-28T03:00:09.165Z,66.10
2018-11-28T03:02:37.803Z,65.90
2018-11-28T03:05:08.273Z,65.90
2018-11-28T03:07:36.998Z,66.00
2018-11-28T03:10:08.761Z,66.00
2018-11-28T03:12:37.609Z,66.00
2018-11-28T03:15:07.953Z,65.90
2018-11-28T03:17:36.597Z,66.10
2018-11-28T03:20:06.774Z,65.90
2018-11-28T03:22:35.505Z,65.90
2018-11-28T03:25:05.543Z,66.00
2018-11-28T03:27:34.813Z,66.70
2018-11-28T03:30:04.577Z,65.30
2018-11-28T03:32:33.238Z,66.10
2018-11-28T03:35:01.886Z,66.30
2018-11-28T03:37:30.539Z,66.30
2018-11-28T03:39:59.179Z,66.30
2018-11-28T03:42:27.834Z,66.40
2018-11-28T03:44:56.480Z,66.20
2018-11-28T03:47:25.128Z,66.20
2018-11-28T03:49:53.773Z,66.20
2018-11-28T03:52:22.430Z,66.30
2018-11-28T03:54:51.079Z,66.30
2018-11-28T03:57:19.748Z,66.30
2018-11-28T03:59:48.430Z,66.20
2018-11-28T04:02:17.205Z,66.20
2018-11-28T04:04:45.848Z,66.30
2018-11-28T04:07:14.519Z,66.40
2018-11-28T04:09:43.160Z,66.40
2018-11-28T04:12:11.812Z,66.30
2018-11-28T04:14:40.497Z,66.40
2018-11-28T04:17:09.153Z,66.50
2018-11-28T04:19:37.797Z,66.50
2018-11-28T04:22:06.460Z,66.50
2018-11-28T04:24:35.165Z,66.40
2018-11-28T04:27:03.825Z,66.50
2018-11-28T04:29:33.305Z,66.60
2018-11-28T04:32:02.035Z,66.50
2018-11-28T04:34:30.718Z,66.40
2018-11-28T04:36:59.368Z,66.50
2018-11-28T04:39:28.061Z,66.50
2018-11-28T04:41:56.711Z,66.40
2018-11-28T04:44:25.369Z,66.50
2018-11-28T04:46:54.073Z,66.50
2018-11-28T04:49:22.704Z,66.40
2018-11-28T04:51:51.368Z,66.30
2018-11-28T04:54:20.021Z,66.50
2018-11-28T04:56:48.673Z,66.40
2018-11-28T04:59:17.311Z,66.40
2018-11-28T05:01:45.964Z,66.40
2018-11-28T05:04:14.660Z,66.40
2018-11-28T05:07:33.735Z,66.30
2018-11-28T05:10:02.533Z,66.40
2018-11-28T05:12:31.196Z,65.70
2018-11-28T05:14:59.841Z,66.40
2018-11-28T05:17:28.503Z,66.30
2018-11-28T05:19:57.264Z,66.40
2018-11-28T05:22:25.929Z,66.40
2018-11-28T05:24:54.576Z,66.20
2018-11-28T05:27:23.236Z,66.00
2018-11-28T05:29:51.887Z,66.20
2018-11-28T05:32:20.541Z,66.80
2018-11-28T05:34:49.206Z,66.20
2018-11-28T05:37:17.877Z,66.00
2018-11-28T05:39:46.566Z,66.00
2018-11-28T05:42:15.169Z,65.80
2018-11-28T05:44:43.815Z,65.90
2018-11-28T05:47:12.449Z,65.90
2018-11-28T05:49:41.109Z,65.80
2018-11-28T05:52:09.747Z,65.80
2018-11-28T05:54:38.400Z,65.80
2018-11-28T05:57:07.081Z,65.80
2018-11-28T05:59:35.747Z,65.80
2018-11-28T06:02:04.420Z,65.80
2018-11-28T06:04:33.140Z,65.80
2018-11-28T06:07:01.775Z,65.60
2018-11-28T06:09:30.420Z,65.70
2018-11-28T06:11:59.072Z,65.60
2018-11-28T06:14:27.765Z,65.60
2018-11-28T06:16:56.418Z,65.60
2018-11-28T06:19:25.063Z,65.50
2018-11-28T06:21:53.739Z,65.60
2018-11-28T06:24:22.527Z,65.50
2018-11-28T06:26:51.197Z,66.50
2018-11-28T06:29:19.885Z,65.60
2018-11-28T06:31:48.577Z,65.70
2018-11-28T06:34:17.281Z,65.60
2018-11-28T06:36:45.980Z,65.50
2018-11-28T06:39:14.732Z,65.50
2018-11-28T06:41:43.417Z,65.50
2018-11-28T06:44:12.122Z,65.50
2018-11-28T06:46:40.800Z,65.40
2018-11-28T06:49:09.496Z,65.40
2018-11-28T06:51:38.181Z,65.50
2018-11-28T06:54:06.956Z,65.50
2018-11-28T06:56:36.075Z,65.50
2018-11-28T06:59:05.435Z,65.40
2018-11-28T07:01:34.124Z,65.60
2018-11-28T07:04:02.813Z,65.50
2018-11-28T07:06:31.538Z,65.50
2018-11-28T07:09:00.250Z,65.50
2018-11-28T07:11:29.029Z,65.60
2018-11-28T07:13:57.768Z,65.40
2018-11-28T07:16:27.131Z,65.50
2018-11-28T07:19:05.349Z,65.30
2018-11-28T07:21:34.056Z,65.40
2018-11-28T07:24:02.713Z,65.40
2018-11-28T07:26:31.383Z,65.30
2018-11-28T07:29:00.088Z,65.30
2018-11-28T07:31:28.779Z,65.40
2018-11-28T07:33:57.452Z,65.30
2018-11-28T07:36:26.159Z,65.30
2018-11-28T07:38:54.805Z,65.20
2018-11-28T07:41:24.470Z,65.00
2018-11-28T07:43:53.184Z,65.10
2018-11-28T07:46:21.902Z,65.00
2018-11-28T07:48:50.730Z,65.00
2018-11-28T07:51:25.945Z,64.70
2018-11-28T07:53:54.640Z,64.80
2018-11-28T07:56:23.284Z,64.60
2018-11-28T07:58:51.941Z,64.90
2018-11-28T08:01:20.594Z,64.50
2018-11-28T08:03:49.629Z,64.50
2018-11-28T08:06:17.988Z,64.10
2018-11-28T08:08:46.692Z,64.30
2018-11-28T08:11:15.371Z,64.20
2018-11-28T08:13:44.019Z,64.10
2018-11-28T08:16:12.915Z,64.20
2018-11-28T08:18:42.172Z,64.20
2018-11-28T08:21:10.261Z,64.80
2018-11-28T08:23:38.942Z,64.00
2018-11-28T08:26:07.584Z,64.00
2018-11-28T08:28:37.028Z,63.60
2018-11-28T08:31:05.991Z,63.60
2018-11-28T08:33:34.745Z,63.80
2018-11-28T08:36:03.398Z,63.50
2018-11-28T08:38:32.045Z,63.60
2018-11-28T08:41:00.709Z,63.20
2018-11-28T08:43:29.350Z,63.10
2018-11-28T08:45:58.032Z,63.50
2018-11-28T08:48:26.680Z,62.60
2018-11-28T08:50:55.340Z,62.20
2018-11-28T08:53:23.997Z,62.80
2018-11-28T08:55:52.777Z,62.80
2018-11-28T08:58:21.488Z,62.80
2018-11-28T09:00:50.156Z,62.60
2018-11-28T09:03:18.813Z,62.20
2018-11-28T09:05:47.564Z,62.20
2018-11-28T09:08:16.221Z,62.20
2018-11-28T09:10:44.893Z,62.30
2018-11-28T09:13:13.546Z,62.00
2018-11-28T09:15:42.218Z,61.20
2018-11-28T09:18:10.869Z,61.40
2018-11-28T09:20:39.647Z,61.30
2018-11-28T09:23:08.313Z,61.10
2018-11-28T09:25:37.224Z,61.00
2018-11-28T09:28:06.433Z,61.80
2018-11-28T09:30:35.317Z,61.30
2018-11-28T09:33:04.108Z,61.20
2018-11-28T09:35:33.681Z,60.80
2018-11-28T09:38:02.453Z,61.20
2018-11-28T09:40:31.160Z,61.70
2018-11-28T09:43:00.029Z,60.30
2018-11-28T09:45:28.713Z,60.90
2018-11-28T09:47:57.410Z,60.70
2018-11-28T09:50:26.591Z,60.80
2018-11-28T09:52:55.341Z,61.40
2018-11-28T09:55:24.944Z,60.70
2018-11-28T09:57:53.713Z,60.20
2018-11-28T10:00:24.257Z,60.40
2018-11-28T10:02:56.138Z,60.90
2018-11-28T10:05:27.159Z,60.50
2018-11-28T10:07:55.857Z,60.40
2018-11-28T10:10:24.613Z,60.40
2018-11-28T10:12:53.306Z,60.60
2018-11-28T10:15:22.818Z,60.60
2018-11-28T10:17:51.551Z,60.90
2018-11-28T10:20:20.603Z,60.00
2018-11-28T10:22:50.244Z,60.60
2018-11-28T10:25:27.257Z,61.30
2018-11-28T10:28:01.525Z,60.10
2018-11-28T10:30:32.551Z,60.70
2018-11-28T10:33:01.209Z,60.30
2018-11-28T10:35:29.944Z,61.00
2018-11-28T10:37:58.644Z,60.50
2018-11-28T10:40:27.373Z,60.40
2018-11-28T10:42:57.186Z,60.80
2018-11-28T10:45:27.752Z,59.90
2018-11-28T10:47:56.481Z,59.90
2018-11-28T10:50:25.149Z,60.00
2018-11-28T10:52:53.807Z,60.20
2018-11-28T10:55:23.429Z,60.40
2018-11-28T10:57:52.117Z,61.00
2018-11-28T11:00:28.221Z,61.10
2018-11-28T11:03:02.405Z,61.00
2018-11-28T11:05:36.875Z,62.40
2018-11-28T11:08:11.682Z,61.80
2018-11-28T11:10:45.776Z,61.50
2018-11-28T11:13:19.830Z,61.20
2018-11-28T11:15:54.109Z,61.70
2018-11-28T11:18:22.803Z,61.50
2018-11-28T11:20:51.504Z,61.80
2018-11-28T11:23:20.204Z,61.70
2018-11-28T11:25:48.941Z,61.90
2018-11-28T11:28:17.768Z,61.60
2018-11-28T11:30:46.494Z,61.60
2018-11-28T11:33:15.383Z,61.50
2018-11-28T11:35:44.130Z,61.50
2018-11-28T11:38:12.834Z,61.70
2018-11-28T11:40:41.524Z,61.50
2018-11-28T11:43:10.416Z,60.80
2018-11-28T11:45:39.757Z,61.60
2018-11-28T11:48:08.140Z,61.80
2018-11-28T11:50:36.833Z,61.20
2018-11-28T11:53:06.244Z,61.40
2018-11-28T11:55:36.080Z,61.00
2018-11-28T11:58:05.061Z,60.70
2018-11-28T12:00:33.792Z,60.90
2018-11-28T12:03:05.189Z,60.90
2018-11-28T12:05:33.879Z,61.40
2018-11-28T12:08:02.594Z,61.50
2018-11-28T12:10:31.276Z,62.00
2018-11-28T12:12:59.969Z,61.90
2018-11-28T12:15:28.670Z,61.70
2018-11-28T12:17:57.390Z,61.90
2018-11-28T12:20:34.701Z,62.20
2018-11-28T12:23:03.409Z,63.00
2018-11-28T12:25:32.060Z,62.40
2018-11-28T12:28:00.707Z,62.50
2018-11-28T12:30:29.365Z,63.00
2018-11-28T12:32:58.016Z,63.20
2018-11-28T12:35:26.701Z,62.70
2018-11-28T12:37:55.350Z,63.00
2018-11-28T12:40:24.076Z,63.00
2018-11-28T12:42:53.017Z,63.20
2018-11-28T12:45:21.707Z,64.20
2018-11-28T12:47:50.593Z,63.00
2018-11-28T12:50:21.411Z,62.90
2018-11-28T12:52:50.425Z,63.00
2018-11-28T12:55:19.630Z,63.30
2018-11-28T12:57:48.641Z,64.00
2018-11-28T13:00:19.661Z,63.30
2018-11-28T13:02:48.366Z,63.10
2018-11-28T13:05:18.197Z,63.40
2018-11-28T13:07:46.949Z,63.40
2018-11-28T13:10:18.693Z,63.20
2018-11-28T13:12:48.256Z,63.40
2018-11-28T13:15:17.912Z,63.60
2018-11-28T13:17:46.569Z,63.40
2018-11-28T13:20:16.306Z,63.90
2018-11-28T13:22:45.808Z,64.10
2018-11-28T13:25:16.685Z,63.50
2018-11-28T13:27:49.216Z,63.70
2018-11-28T13:30:18.778Z,63.60
2018-11-28T13:32:48.035Z,63.60
2018-11-28T13:35:25.273Z,64.10
2018-11-28T13:37:55.137Z,63.90
2018-11-28T13:40:23.844Z,63.90
2018-11-28T13:42:52.533Z,63.60
2018-11-28T13:45:22.533Z,63.80
2018-11-28T13:47:52.227Z,63.60
2018-11-28T13:50:20.893Z,63.80
2018-11-28T13:52:50.025Z,63.90
2018-11-28T13:55:39.773Z,63.80
2018-11-28T13:58:03.741Z,63.70
2018-11-28T14:00:32.392Z,63.80
2018-11-28T14:03:01.056Z,64.00
2018-11-28T14:05:29.717Z,64.00
2018-11-28T14:07:58.381Z,63.90
2018-11-28T14:10:27.060Z,64.10
2018-11-28T14:12:55.747Z,63.90
2018-11-28T14:15:24.433Z,64.20
2018-11-28T14:17:58.392Z,64.00
2018-11-28T14:20:27.131Z,64.00
2018-11-28T14:22:55.852Z,63.90
2018-11-28T14:25:24.641Z,63.70
2018-11-28T14:27:53.179Z,63.90
2018-11-28T14:30:23.468Z,63.90
2018-11-28T14:32:52.579Z,64.00
2018-11-28T14:35:21.968Z,64.00
2018-11-28T14:37:50.696Z,63.90
2018-11-28T14:40:21.288Z,64.10
2018-11-28T14:42:54.306Z,64.00
2018-11-28T14:45:23.079Z,64.10
2018-11-28T14:47:52.167Z,64.20
2018-11-28T14:50:22.692Z,64.10
2018-11-28T14:52:51.999Z,64.10
2018-11-28T14:55:25.479Z,64.20
2018-11-28T14:57:54.191Z,64.30
2018-11-28T15:00:24.829Z,64.20
2018-11-28T15:03:00.567Z,64.40
2018-11-28T15:06:08.281Z,64.20
2018-11-28T15:08:37.184Z,64.40
2018-11-28T15:11:07.285Z,64.50
2018-11-28T15:13:35.961Z,64.50
2018-11-28T15:16:04.756Z,64.50
2018-11-28T15:18:33.409Z,64.40
2018-11-28T15:21:02.076Z,64.50
2018-11-28T15:23:30.753Z,64.60
2018-11-28T15:26:00.340Z,64.40
2018-11-28T15:28:28.070Z,64.50
2018-11-28T15:30:56.801Z,64.60
2018-11-28T15:33:25.461Z,64.70
2018-11-28T15:35:54.744Z,64.80
2018-11-28T15:38:23.435Z,64.50
2018-11-28T15:40:52.087Z,64.50
2018-11-28T15:43:20.739Z,64.80
2018-11-28T15:45:49.397Z,64.40
2018-11-28T15:48:18.056Z,64.50
2018-11-28T15:50:46.704Z,64.50
2018-11-28T15:53:15.406Z,64.50
2018-11-28T15:55:44.077Z,64.60
2018-11-28T15:58:12.737Z,65.30
2018-11-28T16:00:41.428Z,64.80
2018-11-28T16:03:10.081Z,64.60
2018-11-28T16:05:39.664Z,64.80
2018-11-28T16:08:08.321Z,64.70
2018-11-28T16:10:41.072Z,64.40
2018-11-28T16:13:10.093Z,64.40
2018-11-28T16:15:42.548Z,64.50
2018-11-28T16:18:11.207Z,64.70
2018-11-28T16:20:40.066Z,64.60
2018-11-28T16:23:08.764Z,64.50
2018-11-28T16:25:37.456Z,64.30
2018-11-28T16:28:07.150Z,64.30
2018-11-28T16:30:35.901Z,64.30
2018-11-28T16:33:04.723Z,64.30
2018-11-28T16:35:34.423Z,64.00
2018-11-28T16:38:03.271Z,63.60
2018-11-28T16:40:31.961Z,63.40
2018-11-28T16:43:00.648Z,63.60
2018-11-28T16:45:29.346Z,63.60
2018-11-28T16:47:58.040Z,63.80
2018-11-28T16:50:26.723Z,63.90
2018-11-28T16:52:55.416Z,63.90
2018-11-28T16:55:24.112Z,63.70
2018-11-28T16:57:53.852Z,63.90
2018-11-28T17:00:24.793Z,63.90
2018-11-28T17:02:54.311Z,63.90
2018-11-28T17:05:23.400Z,63.90
2018-11-28T17:07:52.713Z,63.70
2018-11-28T17:10:26.516Z,63.90
2018-11-28T17:12:56.028Z,63.60
2018-11-28T17:15:24.719Z,63.70
2018-11-28T17:17:53.414Z,63.50
2018-11-28T17:20:24.145Z,63.60
2018-11-28T17:22:54.950Z,63.20
2018-11-28T17:25:28.798Z,63.00
2018-11-28T17:27:57.461Z,63.30
2018-11-28T17:30:27.372Z,63.40
2018-11-28T17:32:56.047Z,63.30
2018-11-28T17:35:24.840Z,63.60
2018-11-28T17:37:53.831Z,63.50
2018-11-28T17:40:27.225Z,64.40
2018-11-28T17:42:57.152Z,63.60
2018-11-28T17:45:26.345Z,63.60
2018-11-28T17:47:55.005Z,63.90
2018-11-28T17:50:24.742Z,63.40
2018-11-28T17:52:59.269Z,63.60
2018-11-28T17:55:29.124Z,63.60
2018-11-28T17:57:57.823Z,63.40
2018-11-28T18:00:26.511Z,63.50
2018-11-28T18:02:55.241Z,63.40
2018-11-28T18:05:24.013Z,63.30
2018-11-28T18:07:52.692Z,63.50
2018-11-28T18:10:21.957Z,63.70
2018-11-28T18:13:03.402Z,63.70
2018-11-28T18:15:32.085Z,63.90
2018-11-28T18:18:00.781Z,63.90
2018-11-28T18:20:29.549Z,64.00
2018-11-28T18:22:58.283Z,63.90
2018-11-28T18:25:28.461Z,64.00
2018-11-28T18:27:57.212Z,63.90
2018-11-28T18:30:26.072Z,64.00
2018-11-28T18:32:54.887Z,64.00
2018-11-28T18:35:23.620Z,63.90
2018-11-28T18:37:52.421Z,64.10
2018-11-28T18:40:21.179Z,64.00
2018-11-28T18:42:50.017Z,64.10
2018-11-28T18:45:20.195Z,64.20
2018-11-28T18:47:48.949Z,64.20
2018-11-28T18:50:17.791Z,64.60
2018-11-28T18:52:46.575Z,64.10
2018-11-28T18:55:17.157Z,64.20
2018-11-28T18:57:46.345Z,64.30
2018-11-28T19:00:16.406Z,64.30
2018-11-28T19:02:45.216Z,64.20
2018-11-28T19:05:13.977Z,64.10
2018-11-28T19:07:43.105Z,64.10
2018-11-28T19:10:14.988Z,64.20
2018-11-28T19:12:43.683Z,64.20
2018-11-28T19:15:17.373Z,64.40
2018-11-28T19:17:46.618Z,64.40
2018-11-28T19:20:16.207Z,64.30
2018-11-28T19:22:45.373Z,64.40
2018-11-28T19:25:14.941Z,64.30
2018-11-28T19:27:43.845Z,64.30
2018-11-28T19:30:17.972Z,64.20
2018-11-28T19:32:46.685Z,64.30
2018-11-28T19:35:15.420Z,64.20
2018-11-28T19:37:44.140Z,64.20
2018-11-28T19:40:16.405Z,64.10
2018-11-28T19:42:45.102Z,64.10
2018-11-28T19:45:13.808Z,64.30
2018-11-28T19:47:42.509Z,64.30
2018-11-28T19:50:17.093Z,64.30
2018-11-28T19:52:45.795Z,64.40
2018-11-28T19:55:14.458Z,64.40
2018-11-28T19:57:43.825Z,64.50
2018-11-28T20:00:16.602Z,64.40
2018-11-28T20:02:45.601Z,64.40
2018-11-28T20:05:14.260Z,64.40
2018-11-28T20:07:45.119Z,64.30
2018-11-28T20:10:14.941Z,64.40
2018-11-28T20:12:43.940Z,64.30
2018-11-28T20:15:14.679Z,64.50
2018-11-28T20:17:43.954Z,64.30
2018-11-28T20:20:13.623Z,64.20
2018-11-28T20:22:42.305Z,64.20
2018-11-28T20:25:12.300Z,64.20
2018-11-28T20:27:41.582Z,64.20
2018-11-28T20:30:12.835Z,64.10
2018-11-28T20:32:41.499Z,64.30
2018-11-28T20:35:10.707Z,64.00
2018-11-28T20:37:39.882Z,64.00
2018-11-28T20:40:11.075Z,64.20
2018-11-28T20:42:40.453Z,64.20
2018-11-28T20:45:10.269Z,64.20
2018-11-28T20:47:38.925Z,64.20
2018-11-28T20:50:12.248Z,64.30
2018-11-28T20:52:42.158Z,64.10
2018-11-28T20:55:10.841Z,64.10
2018-11-28T20:57:39.524Z,64.00
2018-11-28T21:00:14.786Z,64.10
2018-11-28T21:02:44.243Z,64.20
2018-11-28T21:05:12.904Z,64.00
2018-11-28T21:07:41.577Z,64.10
2018-11-28T21:10:17.604Z,63.90
2018-11-28T21:12:46.253Z,64.10
2018-11-28T21:15:14.925Z,64.20
2018-11-28T21:17:45.096Z,64.10
2018-11-28T21:20:15.750Z,64.30
2018-11-28T21:22:53.964Z,64.20
2018-11-28T21:25:22.667Z,64.30
2018-11-28T21:27:51.370Z,64.30
2018-11-28T21:30:20.703Z,64.30
2018-11-28T21:32:50.558Z,64.30
2018-11-28T21:35:28.885Z,64.20
2018-11-28T21:37:57.569Z,64.10
2018-11-28T21:40:26.420Z,64.20
2018-11-28T21:42:55.085Z,64.30
2018-11-28T21:45:24.432Z,64.30
2018-11-28T21:47:53.142Z,64.20
2018-11-28T21:50:21.825Z,64.20
2018-11-28T21:52:50.467Z,64.20
2018-11-28T21:55:21.223Z,64.30
2018-11-28T21:57:50.049Z,65.10
2018-11-28T22:00:19.730Z,64.20
2018-11-28T22:02:48.667Z,64.30
2018-11-28T22:05:17.616Z,64.00
2018-11-28T22:07:46.364Z,64.40
2018-11-28T22:10:20.289Z,64.30
2018-11-28T22:12:48.943Z,64.50
2018-11-28T22:15:18.545Z,64.50
2018-11-28T22:17:53.197Z,64.40
2018-11-28T22:20:22.132Z,64.50
2018-11-28T22:22:50.789Z,64.40
2018-11-28T22:25:24.320Z,64.40
2018-11-28T22:27:52.988Z,65.30
2018-11-28T22:30:24.566Z,64.40
2018-11-28T22:32:53.223Z,64.60
2018-11-28T22:35:21.900Z,64.50
2018-11-28T22:37:50.560Z,64.40
2018-11-28T22:40:23.507Z,64.50
2018-11-28T22:42:52.189Z,64.50
2018-11-28T22:45:22.817Z,64.50
2018-11-28T22:47:51.489Z,64.70
2018-11-28T22:50:20.151Z,64.80
2018-11-28T22:52:48.873Z,64.80
2018-11-28T22:55:18.081Z,64.60
2018-11-28T22:57:46.777Z,64.70
2018-11-28T23:00:29.517Z,64.90
2018-11-28T23:03:05.474Z,64.70
2018-11-28T23:05:37.307Z,64.60
2018-11-28T23:08:07.316Z,64.60
2018-11-28T23:10:36.629Z,64.60
2018-11-28T23:13:06.019Z,64.60
2018-11-28T23:15:34.920Z,64.60
2018-11-28T23:18:03.578Z,64.70
2018-11-28T23:20:32.280Z,64.70
2018-11-28T23:23:01.038Z,64.40
2018-11-28T23:25:29.723Z,65.30
2018-11-28T23:27:58.454Z,64.40
2018-11-28T23:30:27.134Z,64.50
2018-11-28T23:32:55.836Z,64.40
2018-11-28T23:35:24.836Z,64.60
2018-11-28T23:37:53.560Z,64.70
2018-11-28T23:40:23.973Z,64.70
2018-11-28T23:42:53.270Z,64.90
2018-11-28T23:45:22.242Z,65.00
2018-11-28T23:47:50.936Z,65.20
2018-11-28T23:50:21.565Z,65.20
2018-11-28T23:52:51.128Z,65.20
2018-11-28T23:55:26.636Z,65.20
2018-11-28T23:57:55.407Z,65.00
